sensor_id;sensor_type;location;lat;lon;timestamp;pressure;altitude;pressure_sealevel;temperature;humidity
26823;BME280;14852;51.910;8.878;2023-12-20T00:01:02;99408.00;;;10.55;69.89
26823;BME280;14852;51.910;8.878;2023-12-20T00:03:28;99402.91;;;10.53;69.57
26823;BME280;14852;51.910;8.878;2023-12-20T00:05:54;99404.66;;;10.53;69.74
26823;BME280;14852;51.910;8.878;2023-12-20T00:08:21;99397.88;;;10.50;69.76
26823;BME280;14852;51.910;8.878;2023-12-20T00:10:46;99397.22;;;10.47;69.72
26823;BME280;14852;51.910;8.878;2023-12-20T00:13:12;99402.59;;;10.44;69.90
26823;BME280;14852;51.910;8.878;2023-12-20T00:15:38;99400.16;;;10.41;69.90
26823;BME280;14852;51.910;8.878;2023-12-20T00:18:04;99401.28;;;10.37;69.45
26823;BME280;14852;51.910;8.878;2023-12-20T00:20:30;99399.78;;;10.33;69.44
26823;BME280;14852;51.910;8.878;2023-12-20T00:22:57;99396.69;;;10.26;69.47
26823;BME280;14852;51.910;8.878;2023-12-20T00:25:26;99406.56;;;10.20;69.51
26823;BME280;14852;51.910;8.878;2023-12-20T00:27:52;99414.59;;;10.15;69.51
26823;BME280;14852;51.910;8.878;2023-12-20T00:30:18;99409.66;;;10.10;69.45
26823;BME280;14852;51.910;8.878;2023-12-20T00:32:44;99406.31;;;10.08;69.42
26823;BME280;14852;51.910;8.878;2023-12-20T00:35:15;99409.81;;;10.07;69.21
26823;BME280;14852;51.910;8.878;2023-12-20T00:37:44;99421.13;;;10.06;69.01
26823;BME280;14852;51.910;8.878;2023-12-20T00:40:11;99426.69;;;10.00;69.04
26823;BME280;14852;51.910;8.878;2023-12-20T00:42:37;99426.84;;;9.97;69.00
26823;BME280;14852;51.910;8.878;2023-12-20T00:45:03;99439.81;;;9.97;68.97
26823;BME280;14852;51.910;8.878;2023-12-20T00:47:33;99427.75;;;9.96;69.16
26823;BME280;14852;51.910;8.878;2023-12-20T00:49:59;99427.84;;;9.95;69.18
26823;BME280;14852;51.910;8.878;2023-12-20T00:52:25;99423.56;;;9.94;69.37
26823;BME280;14852;51.910;8.878;2023-12-20T00:54:51;99428.03;;;9.92;68.95
26823;BME280;14852;51.910;8.878;2023-12-20T00:57:16;99433.09;;;9.93;68.68
26823;BME280;14852;51.910;8.878;2023-12-20T00:59:42;99434.22;;;9.89;69.29
26823;BME280;14852;51.910;8.878;2023-12-20T01:02:08;99435.13;;;9.88;68.96
26823;BME280;14852;51.910;8.878;2023-12-20T01:04:35;99434.22;;;9.89;69.09
26823;BME280;14852;51.910;8.878;2023-12-20T01:07:01;99434.22;;;9.89;69.20
26823;BME280;14852;51.910;8.878;2023-12-20T01:09:27;99433.38;;;9.89;68.75
26823;BME280;14852;51.910;8.878;2023-12-20T01:11:53;99436.72;;;9.91;68.85
26823;BME280;14852;51.910;8.878;2023-12-20T01:14:19;99442.66;;;9.93;68.51
26823;BME280;14852;51.910;8.878;2023-12-20T01:16:45;99433.28;;;9.90;68.85
26823;BME280;14852;51.910;8.878;2023-12-20T01:19:11;99433.44;;;9.87;68.83
26823;BME280;14852;51.910;8.878;2023-12-20T01:21:37;99442.22;;;9.85;68.73
26823;BME280;14852;51.910;8.878;2023-12-20T01:24:03;99429.34;;;9.83;68.92
26823;BME280;14852;51.910;8.878;2023-12-20T01:26:29;99439.91;;;9.80;68.49
26823;BME280;14852;51.910;8.878;2023-12-20T01:28:54;99430.53;;;9.77;68.48
26823;BME280;14852;51.910;8.878;2023-12-20T01:31:20;99429.84;;;9.74;68.90
26823;BME280;14852;51.910;8.878;2023-12-20T01:33:46;99432.44;;;9.74;68.96
26823;BME280;14852;51.910;8.878;2023-12-20T01:36:12;99436.78;;;9.73;68.66
26823;BME280;14852;51.910;8.878;2023-12-20T01:38:38;99438.53;;;9.73;68.66
26823;BME280;14852;51.910;8.878;2023-12-20T01:41:03;99436.88;;;9.72;68.67
26823;BME280;14852;51.910;8.878;2023-12-20T01:43:30;99437.78;;;9.71;68.44
26823;BME280;14852;51.910;8.878;2023-12-20T01:45:57;99445.50;;;9.72;68.56
26823;BME280;14852;51.910;8.878;2023-12-20T01:48:25;99439.53;;;9.70;68.85
26823;BME280;14852;51.910;8.878;2023-12-20T01:50:51;99442.31;;;9.67;68.82
26823;BME280;14852;51.910;8.878;2023-12-20T01:53:20;99445.75;;;9.68;68.81
26823;BME280;14852;51.910;8.878;2023-12-20T01:55:48;99449.28;;;9.67;68.37
26823;BME280;14852;51.910;8.878;2023-12-20T01:58:15;99447.59;;;9.66;68.31
26823;BME280;14852;51.910;8.878;2023-12-20T02:00:42;99453.53;;;9.68;68.02
26823;BME280;14852;51.910;8.878;2023-12-20T02:03:08;99459.72;;;9.65;68.44
26823;BME280;14852;51.910;8.878;2023-12-20T02:05:35;99462.47;;;9.62;68.42
26823;BME280;14852;51.910;8.878;2023-12-20T02:08:02;99459.94;;;9.61;68.21
26823;BME280;14852;51.910;8.878;2023-12-20T02:10:28;99458.47;;;9.57;68.23
26823;BME280;14852;51.910;8.878;2023-12-20T02:12:54;99457.63;;;9.56;68.70
26823;BME280;14852;51.910;8.878;2023-12-20T02:15:20;99454.34;;;9.53;68.55
26823;BME280;14852;51.910;8.878;2023-12-20T02:17:47;99440.69;;;9.49;68.16
26823;BME280;14852;51.910;8.878;2023-12-20T02:20:14;99445.31;;;9.44;68.42
26823;BME280;14852;51.910;8.878;2023-12-20T02:22:39;99448.19;;;9.38;68.33
26823;BME280;14852;51.910;8.878;2023-12-20T02:25:06;99443.34;;;9.32;68.90
26823;BME280;14852;51.910;8.878;2023-12-20T02:27:32;99441.66;;;9.31;68.71
26823;BME280;14852;51.910;8.878;2023-12-20T02:29:57;99436.34;;;9.34;68.81
26823;BME280;14852;51.910;8.878;2023-12-20T02:32:24;99444.84;;;9.36;68.76
26823;BME280;14852;51.910;8.878;2023-12-20T02:34:54;99441.34;;;9.37;68.46
26823;BME280;14852;51.910;8.878;2023-12-20T02:37:20;99433.56;;;9.37;68.54
26823;BME280;14852;51.910;8.878;2023-12-20T02:39:46;99431.88;;;9.36;68.64
26823;BME280;14852;51.910;8.878;2023-12-20T02:42:11;99433.81;;;9.32;68.30
26823;BME280;14852;51.910;8.878;2023-12-20T02:44:37;99432.50;;;9.24;68.25
26823;BME280;14852;51.910;8.878;2023-12-20T02:47:03;99439.78;;;9.17;68.52
26823;BME280;14852;51.910;8.878;2023-12-20T02:49:29;99443.44;;;9.13;68.53
26823;BME280;14852;51.910;8.878;2023-12-20T02:51:55;99444.34;;;9.12;68.72
26823;BME280;14852;51.910;8.878;2023-12-20T02:54:20;99441.69;;;9.14;68.60
26823;BME280;14852;51.910;8.878;2023-12-20T02:56:47;99439.03;;;9.15;68.41
26823;BME280;14852;51.910;8.878;2023-12-20T02:59:13;99427.75;;;9.16;68.11
26823;BME280;14852;51.910;8.878;2023-12-20T03:01:44;99431.41;;;9.12;68.64
26823;BME280;14852;51.910;8.878;2023-12-20T03:04:11;99436.00;;;9.07;68.64
26823;BME280;14852;51.910;8.878;2023-12-20T03:06:37;99429.22;;;9.04;68.80
26823;BME280;14852;51.910;8.878;2023-12-20T03:09:02;99429.53;;;8.98;68.32
26823;BME280;14852;51.910;8.878;2023-12-20T03:11:28;99427.03;;;8.97;68.67
26823;BME280;14852;51.910;8.878;2023-12-20T03:13:57;99428.78;;;8.96;68.43
26823;BME280;14852;51.910;8.878;2023-12-20T03:16:23;99423.59;;;8.96;68.62
26823;BME280;14852;51.910;8.878;2023-12-20T03:18:49;99417.50;;;8.97;68.66
26823;BME280;14852;51.910;8.878;2023-12-20T03:21:15;99422.50;;;9.00;68.79
26823;BME280;14852;51.910;8.878;2023-12-20T03:23:41;99419.91;;;9.00;68.50
26823;BME280;14852;51.910;8.878;2023-12-20T03:26:08;99419.91;;;9.00;68.28
26823;BME280;14852;51.910;8.878;2023-12-20T03:28:34;99414.66;;;9.02;68.70
26823;BME280;14852;51.910;8.878;2023-12-20T03:31:00;99412.97;;;9.01;68.57
26823;BME280;14852;51.910;8.878;2023-12-20T03:33:26;99419.81;;;9.02;68.63
26823;BME280;14852;51.910;8.878;2023-12-20T03:35:51;99414.56;;;9.03;68.29
26823;BME280;14852;51.910;8.878;2023-12-20T03:38:17;99411.00;;;9.06;68.61
26823;BME280;14852;51.910;8.878;2023-12-20T03:40:43;99416.88;;;9.10;68.27
26823;BME280;14852;51.910;8.878;2023-12-20T03:43:09;99418.44;;;9.12;68.55
26823;BME280;14852;51.910;8.878;2023-12-20T03:45:35;99418.28;;;9.15;68.32
26823;BME280;14852;51.910;8.878;2023-12-20T03:48:00;99423.53;;;9.14;68.18
26823;BME280;14852;51.910;8.878;2023-12-20T03:50:26;99419.19;;;9.14;68.12
26823;BME280;14852;51.910;8.878;2023-12-20T03:52:52;99413.19;;;9.14;68.43
26823;BME280;14852;51.910;8.878;2023-12-20T03:55:18;99412.34;;;9.13;68.09
26823;BME280;14852;51.910;8.878;2023-12-20T03:57:44;99411.41;;;9.14;68.46
26823;BME280;14852;51.910;8.878;2023-12-20T04:00:11;99409.59;;;9.16;68.25
26823;BME280;14852;51.910;8.878;2023-12-20T04:02:42;99399.31;;;9.15;68.19
26823;BME280;14852;51.910;8.878;2023-12-20T04:05:09;99400.28;;;9.12;68.26
26823;BME280;14852;51.910;8.878;2023-12-20T04:07:36;99398.72;;;9.10;68.20
26823;BME280;14852;51.910;8.878;2023-12-20T04:10:02;99411.75;;;9.08;68.31
26823;BME280;14852;51.910;8.878;2023-12-20T04:12:29;99404.06;;;9.06;68.13
26823;BME280;14852;51.910;8.878;2023-12-20T04:14:55;99414.34;;;9.08;67.97
26823;BME280;14852;51.910;8.878;2023-12-20T04:17:21;99408.41;;;9.06;68.18
26823;BME280;14852;51.910;8.878;2023-12-20T04:19:51;99411.91;;;9.05;68.11
26823;BME280;14852;51.910;8.878;2023-12-20T04:22:19;99404.06;;;9.06;68.05
26823;BME280;14852;51.910;8.878;2023-12-20T04:24:45;99407.72;;;9.02;67.83
26823;BME280;14852;51.910;8.878;2023-12-20T04:27:11;99393.91;;;9.02;68.17
26823;BME280;14852;51.910;8.878;2023-12-20T04:29:37;99403.69;;;8.97;67.84
26823;BME280;14852;51.910;8.878;2023-12-20T04:32:04;99401.25;;;8.94;67.87
26823;BME280;14852;51.910;8.878;2023-12-20T04:34:30;99401.25;;;8.94;68.31
26823;BME280;14852;51.910;8.878;2023-12-20T04:36:56;99405.53;;;8.95;68.45
26823;BME280;14852;51.910;8.878;2023-12-20T04:39:22;99402.16;;;8.93;68.31
26823;BME280;14852;51.910;8.878;2023-12-20T04:41:47;99392.66;;;8.93;68.08
26823;BME280;14852;51.910;8.878;2023-12-20T04:44:13;99396.16;;;8.92;68.25
26823;BME280;14852;51.910;8.878;2023-12-20T04:46:39;99396.84;;;8.96;68.07
26823;BME280;14852;51.910;8.878;2023-12-20T04:49:05;99397.69;;;8.96;68.36
26823;BME280;14852;51.910;8.878;2023-12-20T04:51:34;99389.84;;;8.98;67.77
26823;BME280;14852;51.910;8.878;2023-12-20T04:54:00;99401.03;;;8.98;68.22
26823;BME280;14852;51.910;8.878;2023-12-20T04:56:26;99399.44;;;8.96;68.03
26823;BME280;14852;51.910;8.878;2023-12-20T04:58:51;99403.69;;;8.97;67.78
26823;BME280;14852;51.910;8.878;2023-12-20T05:01:17;99408.13;;;8.95;67.82
26823;BME280;14852;51.910;8.878;2023-12-20T05:03:43;99410.72;;;8.95;67.96
26823;BME280;14852;51.910;8.878;2023-12-20T05:06:10;99402.84;;;8.96;68.01
26823;BME280;14852;51.910;8.878;2023-12-20T05:08:35;99392.50;;;8.96;67.66
26823;BME280;14852;51.910;8.878;2023-12-20T05:11:01;99391.59;;;8.97;67.97
26823;BME280;14852;51.910;8.878;2023-12-20T05:13:27;99394.94;;;8.99;67.87
26823;BME280;14852;51.910;8.878;2023-12-20T05:15:53;99404.34;;;9.00;68.06
26823;BME280;14852;51.910;8.878;2023-12-20T05:18:20;99400.94;;;9.00;67.72
26823;BME280;14852;51.910;8.878;2023-12-20T05:20:46;99396.69;;;8.99;67.85
26823;BME280;14852;51.910;8.878;2023-12-20T05:23:12;99394.94;;;8.99;67.77
26823;BME280;14852;51.910;8.878;2023-12-20T05:25:39;99405.31;;;8.99;67.90
26823;BME280;14852;51.910;8.878;2023-12-20T05:28:05;99393.25;;;8.98;68.07
26823;BME280;14852;51.910;8.878;2023-12-20T05:30:31;99392.41;;;8.98;67.83
26823;BME280;14852;51.910;8.878;2023-12-20T05:32:56;99395.00;;;8.98;67.77
26823;BME280;14852;51.910;8.878;2023-12-20T05:35:22;99389.75;;;8.99;67.76
26823;BME280;14852;51.910;8.878;2023-12-20T05:37:49;99381.97;;;8.99;67.92
26823;BME280;14852;51.910;8.878;2023-12-20T05:40:15;99382.91;;;8.98;67.92
26823;BME280;14852;51.910;8.878;2023-12-20T05:42:41;99376.88;;;8.98;68.00
26823;BME280;14852;51.910;8.878;2023-12-20T05:45:07;99383.88;;;8.96;67.88
26823;BME280;14852;51.910;8.878;2023-12-20T05:47:33;99379.63;;;8.95;68.11
26823;BME280;14852;51.910;8.878;2023-12-20T05:49:59;99388.31;;;8.94;67.91
26823;BME280;14852;51.910;8.878;2023-12-20T05:52:24;99385.78;;;8.92;67.97
26823;BME280;14852;51.910;8.878;2023-12-20T05:54:50;99390.06;;;8.93;67.87
26823;BME280;14852;51.910;8.878;2023-12-20T05:57:16;99387.47;;;8.93;67.75
26823;BME280;14852;51.910;8.878;2023-12-20T05:59:42;99386.56;;;8.94;68.03
26823;BME280;14852;51.910;8.878;2023-12-20T06:02:07;99388.31;;;8.94;67.64
26823;BME280;14852;51.910;8.878;2023-12-20T06:04:33;99394.25;;;8.96;68.02
26823;BME280;14852;51.910;8.878;2023-12-20T06:06:59;99395.09;;;8.96;67.66
26823;BME280;14852;51.910;8.878;2023-12-20T06:09:27;99406.22;;;8.98;68.00
26823;BME280;14852;51.910;8.878;2023-12-20T06:11:53;99396.84;;;8.96;67.66
26823;BME280;14852;51.910;8.878;2023-12-20T06:14:19;99401.34;;;8.92;67.87
26823;BME280;14852;51.910;8.878;2023-12-20T06:16:45;99392.66;;;8.93;67.74
26823;BME280;14852;51.910;8.878;2023-12-20T06:19:11;99395.38;;;8.90;68.11
26823;BME280;14852;51.910;8.878;2023-12-20T06:21:37;99408.59;;;8.86;67.91
26823;BME280;14852;51.910;8.878;2023-12-20T06:24:03;99407.00;;;8.83;68.23
26823;BME280;14852;51.910;8.878;2023-12-20T06:26:29;99413.09;;;8.82;67.99
26823;BME280;14852;51.910;8.878;2023-12-20T06:28:54;99400.91;;;8.84;67.88
26823;BME280;14852;51.910;8.878;2023-12-20T06:31:21;99407.75;;;8.85;68.03
26823;BME280;14852;51.910;8.878;2023-12-20T06:33:46;99411.94;;;8.88;68.02
26823;BME280;14852;51.910;8.878;2023-12-20T06:36:13;99414.34;;;8.91;67.60
26823;BME280;14852;51.910;8.878;2023-12-20T06:38:39;99408.25;;;8.92;67.64
26823;BME280;14852;51.910;8.878;2023-12-20T06:41:05;99413.78;;;8.86;68.12
26823;BME280;14852;51.910;8.878;2023-12-20T06:43:31;99403.47;;;8.84;67.84
26823;BME280;14852;51.910;8.878;2023-12-20T06:46:00;99415.66;;;8.82;68.28
26823;BME280;14852;51.910;8.878;2023-12-20T06:48:26;99422.59;;;8.82;68.00
26823;BME280;14852;51.910;8.878;2023-12-20T06:50:51;99414.69;;;8.85;68.07
26823;BME280;14852;51.910;8.878;2023-12-20T06:53:18;99413.00;;;8.84;68.11
26823;BME280;14852;51.910;8.878;2023-12-20T06:55:43;99408.75;;;8.83;67.87
26823;BME280;14852;51.910;8.878;2023-12-20T06:58:09;99404.31;;;8.85;67.61
26823;BME280;14852;51.910;8.878;2023-12-20T07:00:35;99394.81;;;8.85;67.78
26823;BME280;14852;51.910;8.878;2023-12-20T07:03:01;99397.47;;;8.84;67.63
26823;BME280;14852;51.910;8.878;2023-12-20T07:08:01;99402.50;;;8.87;67.76
26823;BME280;14852;51.910;8.878;2023-12-20T07:10:27;99394.88;;;8.84;67.72
26823;BME280;14852;51.910;8.878;2023-12-20T07:12:52;99392.34;;;8.82;67.86
26823;BME280;14852;51.910;8.878;2023-12-20T07:15:22;99401.88;;;8.82;67.95
26823;BME280;14852;51.910;8.878;2023-12-20T07:17:47;99386.34;;;8.82;67.97
26823;BME280;14852;51.910;8.878;2023-12-20T07:20:13;99393.28;;;8.81;67.66
26823;BME280;14852;51.910;8.878;2023-12-20T07:22:39;99398.44;;;8.81;67.84
26823;BME280;14852;51.910;8.878;2023-12-20T07:25:05;99401.19;;;8.78;68.05
26823;BME280;14852;51.910;8.878;2023-12-20T07:27:31;99405.38;;;8.81;68.03
26823;BME280;14852;51.910;8.878;2023-12-20T07:29:57;99399.28;;;8.82;67.92
26823;BME280;14852;51.910;8.878;2023-12-20T07:32:23;99396.69;;;8.82;67.69
26823;BME280;14852;51.910;8.878;2023-12-20T07:34:48;99387.94;;;8.84;67.82
26823;BME280;14852;51.910;8.878;2023-12-20T07:37:14;99385.44;;;8.83;67.86
26823;BME280;14852;51.910;8.878;2023-12-20T07:39:41;99394.88;;;8.84;67.96
26823;BME280;14852;51.910;8.878;2023-12-20T07:42:08;99406.00;;;8.86;68.01
26823;BME280;14852;51.910;8.878;2023-12-20T07:44:34;99400.81;;;8.86;67.83
26823;BME280;14852;51.910;8.878;2023-12-20T07:47:01;99397.38;;;8.85;67.63
26823;BME280;14852;51.910;8.878;2023-12-20T07:49:27;99392.34;;;8.82;67.97
26823;BME280;14852;51.910;8.878;2023-12-20T07:51:53;99382.00;;;8.82;68.26
26823;BME280;14852;51.910;8.878;2023-12-20T07:54:19;99392.34;;;8.82;68.11
26823;BME280;14852;51.910;8.878;2023-12-20T07:56:46;99385.50;;;8.81;67.89
26823;BME280;14852;51.910;8.878;2023-12-20T07:59:12;99385.44;;;8.83;67.73
26823;BME280;14852;51.910;8.878;2023-12-20T08:01:38;99390.59;;;8.83;67.71
26823;BME280;14852;51.910;8.878;2023-12-20T08:04:04;99388.00;;;8.83;67.72
26823;BME280;14852;51.910;8.878;2023-12-20T08:06:29;99385.44;;;8.83;67.88
26823;BME280;14852;51.910;8.878;2023-12-20T08:08:55;99390.53;;;8.84;67.97
26823;BME280;14852;51.910;8.878;2023-12-20T08:11:21;99399.97;;;8.85;67.66
26823;BME280;14852;51.910;8.878;2023-12-20T08:13:47;99401.72;;;8.85;67.95
26823;BME280;14852;51.910;8.878;2023-12-20T08:16:13;99405.16;;;8.85;67.83
26823;BME280;14852;51.910;8.878;2023-12-20T08:18:39;99401.72;;;8.85;67.66
26823;BME280;14852;51.910;8.878;2023-12-20T08:21:06;99391.44;;;8.83;67.99
26823;BME280;14852;51.910;8.878;2023-12-20T08:23:34;99395.72;;;8.84;67.72
26823;BME280;14852;51.910;8.878;2023-12-20T08:26:07;99386.13;;;8.86;68.04
26823;BME280;14852;51.910;8.878;2023-12-20T08:28:34;99387.78;;;8.87;67.97
26823;BME280;14852;51.910;8.878;2023-12-20T08:31:00;99377.31;;;8.89;67.53
26823;BME280;14852;51.910;8.878;2023-12-20T08:33:26;99389.13;;;8.94;67.77
26823;BME280;14852;51.910;8.878;2023-12-20T08:35:52;99394.16;;;8.97;67.82
26823;BME280;14852;51.910;8.878;2023-12-20T08:38:18;99385.38;;;9.00;67.67
26823;BME280;14852;51.910;8.878;2023-12-20T08:40:44;99379.06;;;9.05;67.55
26823;BME280;14852;51.910;8.878;2023-12-20T08:43:10;99377.16;;;9.09;67.61
26823;BME280;14852;51.910;8.878;2023-12-20T08:45:38;99373.72;;;9.08;67.32
26823;BME280;14852;51.910;8.878;2023-12-20T08:48:04;99373.66;;;9.10;67.80
26823;BME280;14852;51.910;8.878;2023-12-20T08:50:30;99362.44;;;9.10;67.28
26823;BME280;14852;51.910;8.878;2023-12-20T08:52:56;99355.56;;;9.08;67.57
26823;BME280;14852;51.910;8.878;2023-12-20T08:55:22;99359.25;;;9.04;67.28
26823;BME280;14852;51.910;8.878;2023-12-20T08:57:48;99364.41;;;9.04;67.37
26823;BME280;14852;51.910;8.878;2023-12-20T09:00:15;99361.91;;;9.03;67.41
26823;BME280;14852;51.910;8.878;2023-12-20T09:02:41;99355.03;;;9.02;67.88
26823;BME280;14852;51.910;8.878;2023-12-20T09:05:07;99366.25;;;9.02;67.63
26823;BME280;14852;51.910;8.878;2023-12-20T09:07:33;99364.50;;;9.03;67.65
26823;BME280;14852;51.910;8.878;2023-12-20T09:09:59;99360.91;;;9.05;67.59
26823;BME280;14852;51.910;8.878;2023-12-20T09:12:25;99360.00;;;9.06;67.42
26823;BME280;14852;51.910;8.878;2023-12-20T09:14:51;99354.97;;;9.03;67.43
26823;BME280;14852;51.910;8.878;2023-12-20T09:17:18;99353.28;;;9.02;67.22
26823;BME280;14852;51.910;8.878;2023-12-20T09:19:45;99352.31;;;9.05;67.72
26823;BME280;14852;51.910;8.878;2023-12-20T09:22:11;99335.91;;;9.04;67.68
26823;BME280;14852;51.910;8.878;2023-12-20T09:24:37;99336.00;;;9.03;67.38
26823;BME280;14852;51.910;8.878;2023-12-20T09:27:04;99343.84;;;9.01;67.24
26823;BME280;14852;51.910;8.878;2023-12-20T09:29:31;99339.69;;;8.99;67.51
26823;BME280;14852;51.910;8.878;2023-12-20T09:31:57;99332.56;;;9.02;67.37
26823;BME280;14852;51.910;8.878;2023-12-20T09:34:23;99328.81;;;9.08;67.73
26823;BME280;14852;51.910;8.878;2023-12-20T09:36:51;99322.66;;;9.11;67.48
26823;BME280;14852;51.910;8.878;2023-12-20T09:39:18;99334.84;;;9.08;67.30
26823;BME280;14852;51.910;8.878;2023-12-20T09:44:28;99333.00;;;9.11;67.60
26823;BME280;14852;51.910;8.878;2023-12-20T09:46:55;99302.84;;;9.10;67.81
26823;BME280;14852;51.910;8.878;2023-12-20T09:49:22;99304.50;;;9.11;67.78
26823;BME280;14852;51.910;8.878;2023-12-20T09:51:50;99296.63;;;9.12;67.30
26823;BME280;14852;51.910;8.878;2023-12-20T09:54:21;99294.97;;;9.11;67.66
26823;BME280;14852;51.910;8.878;2023-12-20T09:56:47;99304.31;;;9.14;67.46
26823;BME280;14852;51.910;8.878;2023-12-20T09:59:14;99299.91;;;9.16;67.54
26823;BME280;14852;51.910;8.878;2023-12-20T10:01:41;99291.81;;;9.22;67.40
26823;BME280;14852;51.910;8.878;2023-12-20T10:04:09;99291.81;;;9.22;67.68
26823;BME280;14852;51.910;8.878;2023-12-20T10:06:44;99293.56;;;9.21;67.80
26823;BME280;14852;51.910;8.878;2023-12-20T10:09:11;99301.75;;;9.29;67.24
26823;BME280;14852;51.910;8.878;2023-12-20T10:11:38;99299.00;;;9.32;67.53
26823;BME280;14852;51.910;8.878;2023-12-20T10:14:05;99309.38;;;9.32;67.08
26823;BME280;14852;51.910;8.878;2023-12-20T10:16:32;99291.47;;;9.28;67.26
26823;BME280;14852;51.910;8.878;2023-12-20T10:19:00;99286.28;;;9.28;67.69
26823;BME280;14852;51.910;8.878;2023-12-20T10:21:26;99284.53;;;9.28;67.70
26823;BME280;14852;51.910;8.878;2023-12-20T10:23:56;99283.53;;;9.31;67.64
26823;BME280;14852;51.910;8.878;2023-12-20T10:26:23;99284.53;;;9.28;67.83
26823;BME280;14852;51.910;8.878;2023-12-20T10:28:59;99287.19;;;9.27;67.61
26823;BME280;14852;51.910;8.878;2023-12-20T10:31:33;99279.50;;;9.25;67.60
26823;BME280;14852;51.910;8.878;2023-12-20T10:34:02;99286.44;;;9.25;67.42
26823;BME280;14852;51.910;8.878;2023-12-20T10:36:32;99267.38;;;9.26;67.43
26823;BME280;14852;51.910;8.878;2023-12-20T10:38:59;99259.78;;;9.23;67.94
26823;BME280;14852;51.910;8.878;2023-12-20T10:41:31;99262.19;;;9.26;68.02
26823;BME280;14852;51.910;8.878;2023-12-20T10:44:04;99270.88;;;9.25;67.91
26823;BME280;14852;51.910;8.878;2023-12-20T10:46:34;99265.88;;;9.22;67.80
26823;BME280;14852;51.910;8.878;2023-12-20T10:49:02;99268.28;;;9.25;68.09
26823;BME280;14852;51.910;8.878;2023-12-20T10:51:28;99269.13;;;9.25;67.93
26823;BME280;14852;51.910;8.878;2023-12-20T10:53:56;99264.78;;;9.26;67.65
26823;BME280;14852;51.910;8.878;2023-12-20T10:56:22;99258.75;;;9.25;67.98
26823;BME280;14852;51.910;8.878;2023-12-20T10:58:51;99267.56;;;9.23;67.91
26823;BME280;14852;51.910;8.878;2023-12-20T11:01:19;99262.38;;;9.23;68.01
26823;BME280;14852;51.910;8.878;2023-12-20T11:03:53;99263.19;;;9.23;67.97
26823;BME280;14852;51.910;8.878;2023-12-20T11:06:51;99260.78;;;9.20;67.62
26823;BME280;14852;51.910;8.878;2023-12-20T11:09:49;99261.09;;;9.14;68.13
26823;BME280;14852;51.910;8.878;2023-12-20T11:12:35;99256.66;;;9.16;68.42
26823;BME280;14852;51.910;8.878;2023-12-20T11:15:03;99255.00;;;9.15;67.82
26823;BME280;14852;51.910;8.878;2023-12-20T11:17:31;99260.19;;;9.15;68.16
26823;BME280;14852;51.910;8.878;2023-12-20T11:22:25;99267.19;;;9.13;68.35
26823;BME280;14852;51.910;8.878;2023-12-20T11:24:52;99262.84;;;9.14;68.20
26823;BME280;14852;51.910;8.878;2023-12-20T11:27:21;99263.69;;;9.14;68.60
26823;BME280;14852;51.910;8.878;2023-12-20T11:29:58;99260.78;;;9.20;68.18
26823;BME280;14852;51.910;8.878;2023-12-20T11:34:51;99263.09;;;9.25;68.01
26823;BME280;14852;51.910;8.878;2023-12-20T11:37:20;99256.91;;;9.27;68.43
26823;BME280;14852;51.910;8.878;2023-12-20T11:39:55;99255.91;;;9.30;68.55
26823;BME280;14852;51.910;8.878;2023-12-20T11:42:21;99242.13;;;9.29;68.40
26823;BME280;14852;51.910;8.878;2023-12-20T11:44:46;99250.56;;;9.33;68.25
26823;BME280;14852;51.910;8.878;2023-12-20T11:47:13;99236.59;;;9.35;68.27
26823;BME280;14852;51.910;8.878;2023-12-20T11:49:39;99241.44;;;9.41;68.28
26823;BME280;14852;51.910;8.878;2023-12-20T11:52:05;99228.31;;;9.44;67.95
26823;BME280;14852;51.910;8.878;2023-12-20T11:54:32;99217.41;;;9.54;67.72
26823;BME280;14852;51.910;8.878;2023-12-20T11:56:57;99209.28;;;9.60;67.66
26823;BME280;14852;51.910;8.878;2023-12-20T11:59:23;99211.25;;;9.70;67.82
26823;BME280;14852;51.910;8.878;2023-12-20T12:01:50;99193.75;;;9.74;67.39
26823;BME280;14852;51.910;8.878;2023-12-20T12:04:16;99208.22;;;9.78;67.63
26823;BME280;14852;51.910;8.878;2023-12-20T12:06:44;99217.25;;;9.87;67.52
26823;BME280;14852;51.910;8.878;2023-12-20T12:09:10;99200.91;;;9.85;67.49
26823;BME280;14852;51.910;8.878;2023-12-20T12:11:36;99215.72;;;9.82;67.67
26823;BME280;14852;51.910;8.878;2023-12-20T12:14:02;99214.91;;;9.82;67.90
26823;BME280;14852;51.910;8.878;2023-12-20T12:16:29;99217.59;;;9.80;67.82
26823;BME280;14852;51.910;8.878;2023-12-20T12:18:57;99196.75;;;9.82;67.50
26823;BME280;14852;51.910;8.878;2023-12-20T12:21:23;99200.91;;;9.85;67.91
26823;BME280;14852;51.910;8.878;2023-12-20T12:23:48;99206.59;;;9.91;67.67
26823;BME280;14852;51.910;8.878;2023-12-20T12:26:14;99211.03;;;9.89;67.37
26823;BME280;14852;51.910;8.878;2023-12-20T12:28:41;99200.66;;;9.89;67.82
26823;BME280;14852;51.910;8.878;2023-12-20T12:31:07;99204.09;;;9.90;67.58
26823;BME280;14852;51.910;8.878;2023-12-20T12:33:33;99204.00;;;9.91;67.07
26823;BME280;14852;51.910;8.878;2023-12-20T12:36:01;99209.28;;;9.90;67.65
26823;BME280;14852;51.910;8.878;2023-12-20T12:38:27;99193.13;;;9.85;67.16
26823;BME280;14852;51.910;8.878;2023-12-20T12:40:55;99185.34;;;9.85;67.53
26823;BME280;14852;51.910;8.878;2023-12-20T12:43:21;99201.66;;;9.87;67.42
26823;BME280;14852;51.910;8.878;2023-12-20T12:45:48;99191.47;;;9.84;67.35
26823;BME280;14852;51.910;8.878;2023-12-20T12:48:14;99168.19;;;9.82;67.65
26823;BME280;14852;51.910;8.878;2023-12-20T12:50:40;99180.34;;;9.81;67.08
26823;BME280;14852;51.910;8.878;2023-12-20T12:53:06;99177.09;;;9.78;67.59
26823;BME280;14852;51.910;8.878;2023-12-20T12:55:34;99165.81;;;9.79;67.61
26823;BME280;14852;51.910;8.878;2023-12-20T12:58:00;99170.16;;;9.78;67.56
26823;BME280;14852;51.910;8.878;2023-12-20T13:00:26;99167.56;;;9.78;67.00
26823;BME280;14852;51.910;8.878;2023-12-20T13:02:51;99161.44;;;9.79;67.12
26823;BME280;14852;51.910;8.878;2023-12-20T13:05:17;99164.75;;;9.81;67.35
26823;BME280;14852;51.910;8.878;2023-12-20T13:07:43;99160.41;;;9.82;67.19
26823;BME280;14852;51.910;8.878;2023-12-20T13:10:11;99173.59;;;9.79;67.02
26823;BME280;14852;51.910;8.878;2023-12-20T13:12:36;99170.91;;;9.80;67.10
26823;BME280;14852;51.910;8.878;2023-12-20T13:15:03;99164.97;;;9.78;66.93
26823;BME280;14852;51.910;8.878;2023-12-20T13:17:31;99163.22;;;9.79;67.03